sensor_id;sensor_type;location;lat;lon;timestamp;P1;durP1;ratioP1;P2;durP2;ratioP2
51780;SDS011;37844;57.126;24.288;2023-09-30T00:00:55;22.73;;;11.90;;
51780;SDS011;37844;57.126;24.288;2023-09-30T00:03:39;22.48;;;11.30;;
51780;SDS011;37844;57.126;24.288;2023-09-30T00:06:24;22.25;;;12.25;;
51780;SDS011;37844;57.126;24.288;2023-09-30T00:09:21;27.60;;;12.35;;
51780;SDS011;37844;57.126;24.288;2023-09-30T00:12:05;23.08;;;12.55;;
51780;SDS011;37844;57.126;24.288;2023-09-30T00:14:50;26.65;;;11.73;;
51780;SDS011;37844;57.126;24.288;2023-09-30T00:17:34;17.52;;;11.40;;
51780;SDS011;37844;57.126;24.288;2023-09-30T00:20:18;24.55;;;12.60;;
51780;SDS011;37844;57.126;24.288;2023-09-30T00:23:02;20.98;;;12.55;;
51780;SDS011;37844;57.126;24.288;2023-09-30T00:25:46;15.13;;;11.05;;
51780;SDS011;37844;57.126;24.288;2023-09-30T00:28:32;18.38;;;12.68;;
51780;SDS011;37844;57.126;24.288;2023-09-30T00:31:16;21.85;;;12.07;;
51780;SDS011;37844;57.126;24.288;2023-09-30T00:34:01;25.48;;;12.32;;
51780;SDS011;37844;57.126;24.288;2023-09-30T00:36:45;21.52;;;13.43;;
51780;SDS011;37844;57.126;24.288;2023-09-30T00:39:29;18.25;;;12.02;;
51780;SDS011;37844;57.126;24.288;2023-09-30T00:42:14;24.38;;;12.18;;
51780;SDS011;37844;57.126;24.288;2023-09-30T00:44:58;17.83;;;12.40;;
51780;SDS011;37844;57.126;24.288;2023-09-30T00:47:42;25.85;;;13.88;;
51780;SDS011;37844;57.126;24.288;2023-09-30T00:50:27;19.35;;;11.88;;
51780;SDS011;37844;57.126;24.288;2023-09-30T00:53:12;19.48;;;12.77;;
51780;SDS011;37844;57.126;24.288;2023-09-30T00:55:57;23.38;;;13.43;;
51780;SDS011;37844;57.126;24.288;2023-09-30T00:58:42;28.50;;;12.18;;
51780;SDS011;37844;57.126;24.288;2023-09-30T01:01:27;29.23;;;12.00;;
51780;SDS011;37844;57.126;24.288;2023-09-30T01:04:11;18.27;;;14.27;;
51780;SDS011;37844;57.126;24.288;2023-09-30T01:06:56;16.42;;;12.38;;
51780;SDS011;37844;57.126;24.288;2023-09-30T01:09:41;27.67;;;13.38;;
51780;SDS011;37844;57.126;24.288;2023-09-30T01:12:25;23.50;;;12.32;;
51780;SDS011;37844;57.126;24.288;2023-09-30T01:15:09;19.50;;;13.63;;
51780;SDS011;37844;57.126;24.288;2023-09-30T01:17:54;26.88;;;13.57;;
51780;SDS011;37844;57.126;24.288;2023-09-30T01:20:38;27.23;;;12.45;;
51780;SDS011;37844;57.126;24.288;2023-09-30T01:23:22;20.15;;;12.32;;
51780;SDS011;37844;57.126;24.288;2023-09-30T01:26:12;20.08;;;11.85;;
51780;SDS011;37844;57.126;24.288;2023-09-30T01:31:41;19.40;;;12.50;;
51780;SDS011;37844;57.126;24.288;2023-09-30T01:34:25;19.15;;;12.82;;
51780;SDS011;37844;57.126;24.288;2023-09-30T01:37:09;29.88;;;13.95;;
51780;SDS011;37844;57.126;24.288;2023-09-30T01:39:53;28.55;;;13.35;;
51780;SDS011;37844;57.126;24.288;2023-09-30T01:42:38;33.72;;;12.82;;
51780;SDS011;37844;57.126;24.288;2023-09-30T01:45:22;18.77;;;12.43;;
51780;SDS011;37844;57.126;24.288;2023-09-30T01:48:06;23.33;;;12.55;;
51780;SDS011;37844;57.126;24.288;2023-09-30T01:50:51;33.33;;;13.63;;
51780;SDS011;37844;57.126;24.288;2023-09-30T01:53:35;20.90;;;13.43;;
51780;SDS011;37844;57.126;24.288;2023-09-30T01:56:19;22.67;;;11.77;;
51780;SDS011;37844;57.126;24.288;2023-09-30T01:59:03;21.85;;;13.38;;
51780;SDS011;37844;57.126;24.288;2023-09-30T02:01:48;26.70;;;12.63;;
51780;SDS011;37844;57.126;24.288;2023-09-30T02:04:32;16.38;;;11.63;;
51780;SDS011;37844;57.126;24.288;2023-09-30T02:07:17;18.23;;;12.55;;
51780;SDS011;37844;57.126;24.288;2023-09-30T02:10:00;19.50;;;11.35;;
51780;SDS011;37844;57.126;24.288;2023-09-30T02:12:45;28.50;;;12.13;;
51780;SDS011;37844;57.126;24.288;2023-09-30T02:15:30;25.23;;;13.80;;
51780;SDS011;37844;57.126;24.288;2023-09-30T02:18:14;24.42;;;12.57;;
51780;SDS011;37844;57.126;24.288;2023-09-30T02:20:58;24.17;;;13.10;;
51780;SDS011;37844;57.126;24.288;2023-09-30T02:23:43;14.98;;;10.63;;
51780;SDS011;37844;57.126;24.288;2023-09-30T02:26:32;21.33;;;13.52;;
51780;SDS011;37844;57.126;24.288;2023-09-30T02:29:16;21.95;;;13.35;;
51780;SDS011;37844;57.126;24.288;2023-09-30T02:32:00;20.08;;;12.38;;
51780;SDS011;37844;57.126;24.288;2023-09-30T02:34:44;28.23;;;12.68;;
51780;SDS011;37844;57.126;24.288;2023-09-30T02:37:28;16.17;;;11.75;;
51780;SDS011;37844;57.126;24.288;2023-09-30T02:40:12;15.55;;;11.85;;
51780;SDS011;37844;57.126;24.288;2023-09-30T02:42:58;26.75;;;12.57;;
51780;SDS011;37844;57.126;24.288;2023-09-30T02:45:42;21.42;;;13.05;;
51780;SDS011;37844;57.126;24.288;2023-09-30T02:48:27;16.30;;;10.77;;
51780;SDS011;37844;57.126;24.288;2023-09-30T02:51:11;22.00;;;12.38;;
51780;SDS011;37844;57.126;24.288;2023-09-30T02:53:56;15.65;;;11.65;;
51780;SDS011;37844;57.126;24.288;2023-09-30T02:56:40;25.13;;;12.80;;
51780;SDS011;37844;57.126;24.288;2023-09-30T02:59:25;18.95;;;12.73;;
51780;SDS011;37844;57.126;24.288;2023-09-30T03:02:09;27.60;;;12.10;;
51780;SDS011;37844;57.126;24.288;2023-09-30T03:04:53;20.88;;;11.77;;
51780;SDS011;37844;57.126;24.288;2023-09-30T03:07:37;19.38;;;12.20;;
51780;SDS011;37844;57.126;24.288;2023-09-30T03:10:22;20.20;;;11.77;;
51780;SDS011;37844;57.126;24.288;2023-09-30T03:13:10;21.85;;;11.82;;
51780;SDS011;37844;57.126;24.288;2023-09-30T03:15:54;16.17;;;10.55;;
51780;SDS011;37844;57.126;24.288;2023-09-30T03:18:40;18.55;;;10.73;;
51780;SDS011;37844;57.126;24.288;2023-09-30T03:21:24;17.83;;;10.27;;
51780;SDS011;37844;57.126;24.288;2023-09-30T03:24:08;17.38;;;11.20;;
51780;SDS011;37844;57.126;24.288;2023-09-30T03:26:53;15.02;;;11.15;;
51780;SDS011;37844;57.126;24.288;2023-09-30T03:29:37;17.33;;;10.55;;
51780;SDS011;37844;57.126;24.288;2023-09-30T03:32:21;15.07;;;10.73;;
51780;SDS011;37844;57.126;24.288;2023-09-30T03:35:06;18.15;;;11.20;;
51780;SDS011;37844;57.126;24.288;2023-09-30T03:37:54;25.52;;;10.38;;
51780;SDS011;37844;57.126;24.288;2023-09-30T03:40:39;18.40;;;12.18;;
51780;SDS011;37844;57.126;24.288;2023-09-30T03:43:24;20.13;;;11.52;;
51780;SDS011;37844;57.126;24.288;2023-09-30T03:46:09;23.27;;;15.00;;
51780;SDS011;37844;57.126;24.288;2023-09-30T03:48:53;16.77;;;11.05;;
51780;SDS011;37844;57.126;24.288;2023-09-30T03:51:39;15.57;;;10.82;;
51780;SDS011;37844;57.126;24.288;2023-09-30T03:54:24;17.95;;;11.73;;
51780;SDS011;37844;57.126;24.288;2023-09-30T03:57:08;15.10;;;11.43;;
51780;SDS011;37844;57.126;24.288;2023-09-30T03:59:52;16.02;;;11.05;;
51780;SDS011;37844;57.126;24.288;2023-09-30T04:02:37;15.70;;;11.30;;
51780;SDS011;37844;57.126;24.288;2023-09-30T04:05:21;17.02;;;11.60;;
51780;SDS011;37844;57.126;24.288;2023-09-30T04:08:24;19.00;;;11.27;;
51780;SDS011;37844;57.126;24.288;2023-09-30T04:11:08;21.17;;;11.77;;
51780;SDS011;37844;57.126;24.288;2023-09-30T04:13:53;18.38;;;11.15;;
51780;SDS011;37844;57.126;24.288;2023-09-30T04:16:37;27.42;;;15.48;;
51780;SDS011;37844;57.126;24.288;2023-09-30T04:19:22;25.65;;;13.60;;
51780;SDS011;37844;57.126;24.288;2023-09-30T04:22:06;25.63;;;13.00;;
51780;SDS011;37844;57.126;24.288;2023-09-30T04:24:50;19.20;;;11.48;;
51780;SDS011;37844;57.126;24.288;2023-09-30T04:27:34;14.38;;;11.63;;
51780;SDS011;37844;57.126;24.288;2023-09-30T04:30:19;18.08;;;12.70;;
51780;SDS011;37844;57.126;24.288;2023-09-30T04:33:06;17.92;;;13.18;;
51780;SDS011;37844;57.126;24.288;2023-09-30T04:35:51;22.92;;;12.68;;
51780;SDS011;37844;57.126;24.288;2023-09-30T04:38:35;19.98;;;12.38;;
51780;SDS011;37844;57.126;24.288;2023-09-30T04:41:22;20.80;;;13.45;;
51780;SDS011;37844;57.126;24.288;2023-09-30T04:44:09;24.25;;;12.63;;
51780;SDS011;37844;57.126;24.288;2023-09-30T04:46:53;19.67;;;13.75;;
51780;SDS011;37844;57.126;24.288;2023-09-30T04:49:40;17.67;;;12.48;;
51780;SDS011;37844;57.126;24.288;2023-09-30T04:52:24;30.45;;;12.77;;
51780;SDS011;37844;57.126;24.288;2023-09-30T04:55:11;15.13;;;11.25;;
51780;SDS011;37844;57.126;24.288;2023-09-30T04:57:59;20.13;;;13.40;;
51780;SDS011;37844;57.126;24.288;2023-09-30T05:00:43;17.52;;;11.95;;
51780;SDS011;37844;57.126;24.288;2023-09-30T05:03:27;20.85;;;12.63;;
51780;SDS011;37844;57.126;24.288;2023-09-30T05:06:11;15.77;;;11.88;;
51780;SDS011;37844;57.126;24.288;2023-09-30T05:08:56;22.08;;;14.40;;
51780;SDS011;37844;57.126;24.288;2023-09-30T05:11:40;14.80;;;11.43;;
51780;SDS011;37844;57.126;24.288;2023-09-30T05:14:24;18.67;;;11.15;;
51780;SDS011;37844;57.126;24.288;2023-09-30T05:17:08;18.25;;;12.18;;
51780;SDS011;37844;57.126;24.288;2023-09-30T05:19:52;17.95;;;11.25;;
51780;SDS011;37844;57.126;24.288;2023-09-30T05:22:37;19.25;;;11.25;;
51780;SDS011;37844;57.126;24.288;2023-09-30T05:25:22;17.48;;;11.40;;
51780;SDS011;37844;57.126;24.288;2023-09-30T05:28:09;16.08;;;10.77;;
51780;SDS011;37844;57.126;24.288;2023-09-30T05:30:55;17.38;;;10.63;;
51780;SDS011;37844;57.126;24.288;2023-09-30T05:33:39;25.77;;;11.80;;
51780;SDS011;37844;57.126;24.288;2023-09-30T05:36:23;20.77;;;12.10;;
51780;SDS011;37844;57.126;24.288;2023-09-30T05:39:07;20.02;;;11.90;;
51780;SDS011;37844;57.126;24.288;2023-09-30T05:41:54;14.73;;;10.43;;
51780;SDS011;37844;57.126;24.288;2023-09-30T05:44:39;19.38;;;12.02;;
51780;SDS011;37844;57.126;24.288;2023-09-30T05:47:23;17.95;;;12.02;;
51780;SDS011;37844;57.126;24.288;2023-09-30T05:50:09;13.88;;;10.00;;
51780;SDS011;37844;57.126;24.288;2023-09-30T05:52:53;14.27;;;10.15;;
51780;SDS011;37844;57.126;24.288;2023-09-30T05:55:38;14.27;;;11.18;;
51780;SDS011;37844;57.126;24.288;2023-09-30T05:58:22;15.50;;;10.45;;
51780;SDS011;37844;57.126;24.288;2023-09-30T06:01:10;18.90;;;12.05;;
51780;SDS011;37844;57.126;24.288;2023-09-30T06:03:54;19.35;;;11.70;;
51780;SDS011;37844;57.126;24.288;2023-09-30T06:06:38;16.40;;;12.00;;
51780;SDS011;37844;57.126;24.288;2023-09-30T06:09:22;15.77;;;12.80;;
51780;SDS011;37844;57.126;24.288;2023-09-30T06:12:08;21.77;;;11.82;;
51780;SDS011;37844;57.126;24.288;2023-09-30T06:14:55;14.85;;;11.45;;
51780;SDS011;37844;57.126;24.288;2023-09-30T06:17:39;16.00;;;10.90;;
51780;SDS011;37844;57.126;24.288;2023-09-30T06:20:24;17.08;;;11.95;;
51780;SDS011;37844;57.126;24.288;2023-09-30T06:23:10;20.27;;;11.73;;
51780;SDS011;37844;57.126;24.288;2023-09-30T06:25:54;18.80;;;12.00;;
51780;SDS011;37844;57.126;24.288;2023-09-30T06:28:38;19.00;;;12.75;;
51780;SDS011;37844;57.126;24.288;2023-09-30T06:31:24;18.08;;;11.57;;
51780;SDS011;37844;57.126;24.288;2023-09-30T06:34:08;21.88;;;13.20;;
51780;SDS011;37844;57.126;24.288;2023-09-30T06:36:54;20.38;;;14.20;;
51780;SDS011;37844;57.126;24.288;2023-09-30T06:39:38;22.85;;;12.40;;
51780;SDS011;37844;57.126;24.288;2023-09-30T06:42:23;17.02;;;12.43;;
51780;SDS011;37844;57.126;24.288;2023-09-30T06:45:08;16.00;;;11.45;;
51780;SDS011;37844;57.126;24.288;2023-09-30T06:47:53;19.25;;;10.52;;
51780;SDS011;37844;57.126;24.288;2023-09-30T06:50:45;18.88;;;12.48;;
51780;SDS011;37844;57.126;24.288;2023-09-30T06:53:32;15.10;;;12.02;;
51780;SDS011;37844;57.126;24.288;2023-09-30T06:56:16;17.92;;;11.35;;
51780;SDS011;37844;57.126;24.288;2023-09-30T06:59:00;15.38;;;10.85;;
51780;SDS011;37844;57.126;24.288;2023-09-30T07:01:45;16.33;;;11.93;;
51780;SDS011;37844;57.126;24.288;2023-09-30T07:04:29;18.13;;;11.38;;
51780;SDS011;37844;57.126;24.288;2023-09-30T07:07:13;13.48;;;10.60;;
51780;SDS011;37844;57.126;24.288;2023-09-30T07:09:59;18.48;;;10.85;;
51780;SDS011;37844;57.126;24.288;2023-09-30T07:12:43;13.00;;;8.98;;
51780;SDS011;37844;57.126;24.288;2023-09-30T07:15:27;13.50;;;8.20;;
51780;SDS011;37844;57.126;24.288;2023-09-30T07:18:11;14.65;;;9.93;;
51780;SDS011;37844;57.126;24.288;2023-09-30T07:20:55;15.63;;;9.50;;
51780;SDS011;37844;57.126;24.288;2023-09-30T07:23:39;18.45;;;10.95;;
51780;SDS011;37844;57.126;24.288;2023-09-30T07:26:25;16.90;;;9.02;;
51780;SDS011;37844;57.126;24.288;2023-09-30T07:29:09;12.90;;;8.43;;
51780;SDS011;37844;57.126;24.288;2023-09-30T07:31:54;15.48;;;8.75;;
51780;SDS011;37844;57.126;24.288;2023-09-30T07:34:38;11.50;;;8.25;;
51780;SDS011;37844;57.126;24.288;2023-09-30T07:37:22;14.38;;;7.90;;
51780;SDS011;37844;57.126;24.288;2023-09-30T07:40:06;17.73;;;8.05;;
51780;SDS011;37844;57.126;24.288;2023-09-30T07:42:51;13.18;;;9.10;;
51780;SDS011;37844;57.126;24.288;2023-09-30T07:45:35;19.38;;;8.35;;
51780;SDS011;37844;57.126;24.288;2023-09-30T07:48:19;20.17;;;8.73;;
51780;SDS011;37844;57.126;24.288;2023-09-30T07:51:04;11.73;;;7.82;;
51780;SDS011;37844;57.126;24.288;2023-09-30T07:53:50;20.05;;;8.05;;
51780;SDS011;37844;57.126;24.288;2023-09-30T07:56:34;14.10;;;8.55;;
51780;SDS011;37844;57.126;24.288;2023-09-30T07:59:18;20.48;;;8.48;;
51780;SDS011;37844;57.126;24.288;2023-09-30T08:02:03;13.35;;;8.30;;
51780;SDS011;37844;57.126;24.288;2023-09-30T08:04:48;13.35;;;8.25;;
51780;SDS011;37844;57.126;24.288;2023-09-30T08:07:33;11.68;;;7.53;;
51780;SDS011;37844;57.126;24.288;2023-09-30T08:10:18;11.52;;;8.20;;
51780;SDS011;37844;57.126;24.288;2023-09-30T08:13:02;18.13;;;8.13;;
51780;SDS011;37844;57.126;24.288;2023-09-30T08:15:47;14.50;;;8.90;;
51780;SDS011;37844;57.126;24.288;2023-09-30T08:18:32;11.88;;;8.88;;
51780;SDS011;37844;57.126;24.288;2023-09-30T08:21:16;14.23;;;9.07;;
51780;SDS011;37844;57.126;24.288;2023-09-30T08:24:01;20.50;;;9.95;;
51780;SDS011;37844;57.126;24.288;2023-09-30T08:26:46;14.88;;;10.70;;
51780;SDS011;37844;57.126;24.288;2023-09-30T08:29:30;15.75;;;10.38;;
51780;SDS011;37844;57.126;24.288;2023-09-30T08:32:17;16.52;;;9.23;;
51780;SDS011;37844;57.126;24.288;2023-09-30T08:35:02;26.33;;;10.63;;
51780;SDS011;37844;57.126;24.288;2023-09-30T08:37:50;16.40;;;9.90;;
51780;SDS011;37844;57.126;24.288;2023-09-30T08:40:34;18.10;;;9.13;;
51780;SDS011;37844;57.126;24.288;2023-09-30T08:43:19;17.40;;;8.95;;
51780;SDS011;37844;57.126;24.288;2023-09-30T08:46:11;13.23;;;8.63;;
51780;SDS011;37844;57.126;24.288;2023-09-30T08:48:55;22.45;;;9.10;;
51780;SDS011;37844;57.126;24.288;2023-09-30T08:51:44;20.98;;;10.38;;
51780;SDS011;37844;57.126;24.288;2023-09-30T08:54:32;16.55;;;8.63;;
51780;SDS011;37844;57.126;24.288;2023-09-30T08:57:17;18.80;;;8.45;;
51780;SDS011;37844;57.126;24.288;2023-09-30T09:00:03;18.38;;;8.48;;
51780;SDS011;37844;57.126;24.288;2023-09-30T09:02:48;16.33;;;9.43;;
51780;SDS011;37844;57.126;24.288;2023-09-30T09:05:34;13.85;;;8.95;;
51780;SDS011;37844;57.126;24.288;2023-09-30T09:08:18;12.75;;;8.52;;
51780;SDS011;37844;57.126;24.288;2023-09-30T09:11:07;15.60;;;9.60;;
51780;SDS011;37844;57.126;24.288;2023-09-30T09:13:53;13.02;;;7.82;;
51780;SDS011;37844;57.126;24.288;2023-09-30T09:16:53;13.13;;;8.05;;
51780;SDS011;37844;57.126;24.288;2023-09-30T09:19:38;14.00;;;8.90;;
51780;SDS011;37844;57.126;24.288;2023-09-30T09:22:22;12.55;;;7.25;;
51780;SDS011;37844;57.126;24.288;2023-09-30T09:25:06;14.23;;;8.15;;
51780;SDS011;37844;57.126;24.288;2023-09-30T09:27:51;10.57;;;6.50;;
51780;SDS011;37844;57.126;24.288;2023-09-30T09:30:37;12.13;;;6.90;;
51780;SDS011;37844;57.126;24.288;2023-09-30T09:33:22;10.57;;;6.72;;
51780;SDS011;37844;57.126;24.288;2023-09-30T09:36:20;11.18;;;6.47;;
51780;SDS011;37844;57.126;24.288;2023-09-30T09:39:04;8.43;;;4.30;;
51780;SDS011;37844;57.126;24.288;2023-09-30T09:41:48;13.27;;;4.47;;
51780;SDS011;37844;57.126;24.288;2023-09-30T09:44:37;8.45;;;4.35;;
51780;SDS011;37844;57.126;24.288;2023-09-30T09:47:22;19.95;;;4.25;;
51780;SDS011;37844;57.126;24.288;2023-09-30T09:50:07;10.85;;;4.35;;
51780;SDS011;37844;57.126;24.288;2023-09-30T09:52:53;11.82;;;3.97;;
51780;SDS011;37844;57.126;24.288;2023-09-30T09:55:38;10.65;;;4.22;;
51780;SDS011;37844;57.126;24.288;2023-09-30T09:58:26;12.63;;;3.92;;
51780;SDS011;37844;57.126;24.288;2023-09-30T10:01:11;10.43;;;3.95;;
51780;SDS011;37844;57.126;24.288;2023-09-30T10:03:55;10.27;;;4.20;;
51780;SDS011;37844;57.126;24.288;2023-09-30T10:06:41;15.02;;;4.22;;
51780;SDS011;37844;57.126;24.288;2023-09-30T10:09:33;15.88;;;4.72;;
51780;SDS011;37844;57.126;24.288;2023-09-30T10:12:19;11.13;;;3.70;;
51780;SDS011;37844;57.126;24.288;2023-09-30T10:18:23;8.35;;;3.78;;
51780;SDS011;37844;57.126;24.288;2023-09-30T10:21:08;13.88;;;4.32;;
51780;SDS011;37844;57.126;24.288;2023-09-30T10:24:06;11.63;;;3.80;;
51780;SDS011;37844;57.126;24.288;2023-09-30T10:30:06;14.15;;;4.60;;
51780;SDS011;37844;57.126;24.288;2023-09-30T10:35:44;10.50;;;3.63;;
51780;SDS011;37844;57.126;24.288;2023-09-30T10:41:48;13.85;;;4.25;;
51780;SDS011;37844;57.126;24.288;2023-09-30T10:44:34;10.15;;;4.15;;
51780;SDS011;37844;57.126;24.288;2023-09-30T10:47:34;15.73;;;5.18;;
51780;SDS011;37844;57.126;24.288;2023-09-30T10:53:34;12.23;;;4.53;;
51780;SDS011;37844;57.126;24.288;2023-09-30T10:56:19;12.68;;;4.40;;
51780;SDS011;37844;57.126;24.288;2023-09-30T10:59:04;13.30;;;4.50;;
51780;SDS011;37844;57.126;24.288;2023-09-30T11:01:52;10.85;;;3.25;;
51780;SDS011;37844;57.126;24.288;2023-09-30T11:04:46;18.15;;;4.10;;
51780;SDS011;37844;57.126;24.288;2023-09-30T11:07:30;13.93;;;3.78;;
51780;SDS011;37844;57.126;24.288;2023-09-30T11:10:16;13.20;;;4.32;;
51780;SDS011;37844;57.126;24.288;2023-09-30T11:13:01;10.95;;;4.72;;
51780;SDS011;37844;57.126;24.288;2023-09-30T11:15:46;13.07;;;5.20;;
51780;SDS011;37844;57.126;24.288;2023-09-30T11:18:31;19.98;;;5.63;;
51780;SDS011;37844;57.126;24.288;2023-09-30T11:21:16;10.82;;;5.05;;
51780;SDS011;37844;57.126;24.288;2023-09-30T11:24:00;13.63;;;4.70;;
51780;SDS011;37844;57.126;24.288;2023-09-30T11:26:45;16.42;;;4.07;;
51780;SDS011;37844;57.126;24.288;2023-09-30T11:29:30;8.32;;;3.47;;
51780;SDS011;37844;57.126;24.288;2023-09-30T11:32:24;11.32;;;4.30;;
51780;SDS011;37844;57.126;24.288;2023-09-30T11:35:22;11.38;;;4.25;;
51780;SDS011;37844;57.126;24.288;2023-09-30T11:38:07;9.60;;;3.85;;
51780;SDS011;37844;57.126;24.288;2023-09-30T11:41:01;14.25;;;5.03;;
51780;SDS011;37844;57.126;24.288;2023-09-30T11:44:00;17.15;;;4.35;;
51780;SDS011;37844;57.126;24.288;2023-09-30T11:49:43;13.18;;;4.65;;
51780;SDS011;37844;57.126;24.288;2023-09-30T11:52:33;9.60;;;4.57;;
51780;SDS011;37844;57.126;24.288;2023-09-30T11:55:19;14.07;;;3.67;;
51780;SDS011;37844;57.126;24.288;2023-09-30T11:58:04;15.05;;;3.95;;
51780;SDS011;37844;57.126;24.288;2023-09-30T12:00:48;15.32;;;3.55;;
51780;SDS011;37844;57.126;24.288;2023-09-30T12:03:34;8.65;;;3.35;;
51780;SDS011;37844;57.126;24.288;2023-09-30T12:06:23;12.70;;;4.15;;
51780;SDS011;37844;57.126;24.288;2023-09-30T12:09:08;10.40;;;3.95;;
51780;SDS011;37844;57.126;24.288;2023-09-30T12:11:57;20.77;;;5.40;;
51780;SDS011;37844;57.126;24.288;2023-09-30T12:14:41;12.90;;;4.32;;
51780;SDS011;37844;57.126;24.288;2023-09-30T12:17:26;14.75;;;3.42;;
51780;SDS011;37844;57.126;24.288;2023-09-30T12:20:10;14.13;;;4.30;;
51780;SDS011;37844;57.126;24.288;2023-09-30T12:22:58;17.75;;;3.88;;
51780;SDS011;37844;57.126;24.288;2023-09-30T12:25:41;12.02;;;4.35;;
51780;SDS011;37844;57.126;24.288;2023-09-30T12:28:25;7.68;;;3.55;;
51780;SDS011;37844;57.126;24.288;2023-09-30T12:31:11;11.57;;;3.80;;
51780;SDS011;37844;57.126;24.288;2023-09-30T12:33:57;15.32;;;4.35;;
51780;SDS011;37844;57.126;24.288;2023-09-30T12:36:41;10.77;;;4.18;;
51780;SDS011;37844;57.126;24.288;2023-09-30T12:39:26;9.88;;;4.07;;
51780;SDS011;37844;57.126;24.288;2023-09-30T12:42:13;11.75;;;4.15;;
51780;SDS011;37844;57.126;24.288;2023-09-30T12:44:59;11.88;;;3.80;;
51780;SDS011;37844;57.126;24.288;2023-09-30T12:47:43;10.38;;;3.53;;
51780;SDS011;37844;57.126;24.288;2023-09-30T12:50:29;16.35;;;4.38;;
51780;SDS011;37844;57.126;24.288;2023-09-30T12:53:13;14.00;;;5.45;;
51780;SDS011;37844;57.126;24.288;2023-09-30T12:55:58;11.57;;;4.85;;
51780;SDS011;37844;57.126;24.288;2023-09-30T12:58:43;13.18;;;4.65;;
51780;SDS011;37844;57.126;24.288;2023-09-30T13:01:27;14.13;;;4.00;;
51780;SDS011;37844;57.126;24.288;2023-09-30T13:04:12;13.88;;;5.35;;
51780;SDS011;37844;57.126;24.288;2023-09-30T13:06:56;11.68;;;4.63;;
51780;SDS011;37844;57.126;24.288;2023-09-30T13:09:40;14.70;;;5.72;;
51780;SDS011;37844;57.126;24.288;2023-09-30T13:12:26;20.08;;;5.50;;
51780;SDS011;37844;57.126;24.288;2023-09-30T13:15:11;15.55;;;5.32;;
51780;SDS011;37844;57.126;24.288;2023-09-30T13:17:58;19.60;;;5.45;;
51780;SDS011;37844;57.126;24.288;2023-09-30T13:20:42;13.95;;;4.07;;
51780;SDS011;37844;57.126;24.288;2023-09-30T13:23:26;15.68;;;4.30;;
51780;SDS011;37844;57.126;24.288;2023-09-30T13:26:11;17.13;;;6.10;;
51780;SDS011;37844;57.126;24.288;2023-09-30T13:28:55;15.60;;;4.43;;
51780;SDS011;37844;57.126;24.288;2023-09-30T13:31:39;13.60;;;5.28;;
51780;SDS011;37844;57.126;24.288;2023-09-30T13:34:23;12.93;;;3.53;;
51780;SDS011;37844;57.126;24.288;2023-09-30T13:37:07;13.50;;;4.15;;
51780;SDS011;37844;57.126;24.288;2023-09-30T13:39:51;12.43;;;4.22;;
51780;SDS011;37844;57.126;24.288;2023-09-30T13:42:35;20.15;;;4.25;;
51780;SDS011;37844;57.126;24.288;2023-09-30T13:45:20;9.48;;;3.05;;
51780;SDS011;37844;57.126;24.288;2023-09-30T13:48:04;16.45;;;4.97;;
51780;SDS011;37844;57.126;24.288;2023-09-30T13:50:48;15.93;;;4.90;;
51780;SDS011;37844;57.126;24.288;2023-09-30T13:53:32;10.43;;;4.22;;
51780;SDS011;37844;57.126;24.288;2023-09-30T13:56:16;10.23;;;3.40;;
51780;SDS011;37844;57.126;24.288;2023-09-30T13:59:01;12.20;;;3.50;;
51780;SDS011;37844;57.126;24.288;2023-09-30T14:01:44;21.10;;;4.22;;
51780;SDS011;37844;57.126;24.288;2023-09-30T14:04:31;13.07;;;3.33;;
51780;SDS011;37844;57.126;24.288;2023-09-30T14:07:15;20.35;;;4.38;;
51780;SDS011;37844;57.126;24.288;2023-09-30T14:10:02;20.58;;;9.68;;
51780;SDS011;37844;57.126;24.288;2023-09-30T14:12:50;9.60;;;3.53;;
51780;SDS011;37844;57.126;24.288;2023-09-30T14:15:34;12.82;;;4.10;;
51780;SDS011;37844;57.126;24.288;2023-09-30T14:18:18;10.57;;;2.90;;
51780;SDS011;37844;57.126;24.288;2023-09-30T14:21:03;12.35;;;3.38;;
51780;SDS011;37844;57.126;24.288;2023-09-30T14:23:47;12.93;;;4.07;;
51780;SDS011;37844;57.126;24.288;2023-09-30T14:26:31;28.10;;;11.80;;
51780;SDS011;37844;57.126;24.288;2023-09-30T14:29:15;15.40;;;4.65;;
51780;SDS011;37844;57.126;24.288;2023-09-30T14:31:59;10.90;;;2.97;;
51780;SDS011;37844;57.126;24.288;2023-09-30T14:34:43;11.05;;;3.42;;
51780;SDS011;37844;57.126;24.288;2023-09-30T14:37:27;15.57;;;4.05;;
51780;SDS011;37844;57.126;24.288;2023-09-30T14:40:12;10.43;;;3.10;;
51780;SDS011;37844;57.126;24.288;2023-09-30T14:42:56;10.38;;;3.17;;
51780;SDS011;37844;57.126;24.288;2023-09-30T14:45:41;15.43;;;3.70;;
51780;SDS011;37844;57.126;24.288;2023-09-30T14:48:25;15.77;;;6.28;;
51780;SDS011;37844;57.126;24.288;2023-09-30T14:51:09;12.77;;;4.03;;
51780;SDS011;37844;57.126;24.288;2023-09-30T14:53:53;17.85;;;5.00;;
51780;SDS011;37844;57.126;24.288;2023-09-30T14:56:37;13.63;;;4.40;;
51780;SDS011;37844;57.126;24.288;2023-09-30T14:59:22;10.35;;;4.28;;
51780;SDS011;37844;57.126;24.288;2023-09-30T15:02:06;11.60;;;3.72;;
51780;SDS011;37844;57.126;24.288;2023-09-30T15:04:52;12.65;;;4.68;;
51780;SDS011;37844;57.126;24.288;2023-09-30T15:07:36;13.68;;;4.93;;
51780;SDS011;37844;57.126;24.288;2023-09-30T15:10:24;13.10;;;4.13;;
51780;SDS011;37844;57.126;24.288;2023-09-30T15:13:08;12.27;;;4.65;;
51780;SDS011;37844;57.126;24.288;2023-09-30T15:15:53;20.15;;;5.80;;
51780;SDS011;37844;57.126;24.288;2023-09-30T15:18:37;18.63;;;5.55;;
51780;SDS011;37844;57.126;24.288;2023-09-30T15:21:21;13.68;;;4.28;;
51780;SDS011;37844;57.126;24.288;2023-09-30T15:24:05;10.80;;;4.07;;
51780;SDS011;37844;57.126;24.288;2023-09-30T15:26:50;17.35;;;4.60;;
51780;SDS011;37844;57.126;24.288;2023-09-30T15:29:33;13.20;;;4.80;;
51780;SDS011;37844;57.126;24.288;2023-09-30T15:32:17;13.20;;;4.32;;
51780;SDS011;37844;57.126;24.288;2023-09-30T15:35:02;15.77;;;5.40;;
51780;SDS011;37844;57.126;24.288;2023-09-30T15:37:46;17.45;;;4.75;;
51780;SDS011;37844;57.126;24.288;2023-09-30T15:40:31;13.73;;;3.80;;
51780;SDS011;37844;57.126;24.288;2023-09-30T15:43:15;15.00;;;4.45;;
51780;SDS011;37844;57.126;24.288;2023-09-30T15:45:59;13.50;;;4.32;;
51780;SDS011;37844;57.126;24.288;2023-09-30T15:48:44;18.50;;;5.13;;
51780;SDS011;37844;57.126;24.288;2023-09-30T15:51:28;16.45;;;4.30;;
51780;SDS011;37844;57.126;24.288;2023-09-30T15:54:12;11.50;;;4.35;;
51780;SDS011;37844;57.126;24.288;2023-09-30T15:56:56;20.33;;;5.13;;
51780;SDS011;37844;57.126;24.288;2023-09-30T15:59:42;13.88;;;4.05;;
51780;SDS011;37844;57.126;24.288;2023-09-30T16:02:27;17.90;;;3.67;;
51780;SDS011;37844;57.126;24.288;2023-09-30T16:05:11;13.68;;;4.22;;
51780;SDS011;37844;57.126;24.288;2023-09-30T16:07:55;10.60;;;4.82;;
51780;SDS011;37844;57.126;24.288;2023-09-30T16:10:39;11.88;;;3.78;;
51780;SDS011;37844;57.126;24.288;2023-09-30T16:13:23;15.13;;;3.85;;
51780;SDS011;37844;57.126;24.288;2023-09-30T16:16:07;11.88;;;3.42;;
51780;SDS011;37844;57.126;24.288;2023-09-30T16:18:53;21.33;;;4.93;;
51780;SDS011;37844;57.126;24.288;2023-09-30T16:21:37;14.60;;;4.63;;